Time;durP1;ratioP1;P1;durP2;ratioP2;P2;SDS_P1;SDS_P2;PMS_P1;PMS_P2;Temp;Humidity;BMP_temperature;BMP_pressure;BME280_temperature;BME280_humidity;BME280_pressure;Samples;Min_cycle;Max_cycle;Signal;HPM_P1;HPM_P2
2021/03/19 00:02:21;;;;;;;5.82;3.78;;;2.40;99.90;;;;;;5057107;28;20028;-62
2021/03/19 00:04:47;;;;;;;5.13;3.75;;;2.30;99.90;;;;;;5057544;28;20040;-62
2021/03/19 00:07:13;;;;;;;5.68;3.50;;;2.30;99.90;;;;;;5056113;28;20082;-62
2021/03/19 00:09:38;;;;;;;4.32;3.33;;;2.20;99.90;;;;;;5057679;28;20511;-62
2021/03/19 00:12:04;;;;;;;6.28;3.75;;;2.10;99.90;;;;;;5057784;28;20028;-62
2021/03/19 00:14:30;;;;;;;6.50;3.67;;;2.10;99.90;;;;;;5056885;28;20135;-64
2021/03/19 00:16:56;;;;;;;6.57;4.20;;;1.90;99.90;;;;;;5056668;28;20086;-65
2021/03/19 00:19:21;;;;;;;5.57;4.10;;;1.90;99.90;;;;;;5056198;28;20033;-65
2021/03/19 00:21:47;;;;;;;8.30;4.10;;;1.80;99.90;;;;;;5056568;28;20122;-64
2021/03/19 00:24:13;;;;;;;5.97;4.20;;;1.70;99.90;;;;;;5038746;28;20036;-65
2021/03/19 00:26:39;;;;;;;7.95;4.35;;;1.70;99.90;;;;;;5055076;28;20353;-64
2021/03/19 00:29:05;;;;;;;7.93;3.83;;;1.60;99.90;;;;;;5057192;28;20032;-64
2021/03/19 00:31:31;;;;;;;9.38;3.95;;;1.50;99.90;;;;;;5055472;28;20541;-64
2021/03/19 00:33:56;;;;;;;5.05;3.60;;;1.40;99.90;;;;;;5057473;28;20044;-64
2021/03/19 00:36:22;;;;;;;6.35;3.80;;;1.40;99.90;;;;;;5056173;28;20128;-64
2021/03/19 00:38:48;;;;;;;7.32;3.70;;;1.40;99.90;;;;;;5057570;28;20159;-64
2021/03/19 00:41:13;;;;;;;6.30;3.60;;;1.40;99.90;;;;;;5057008;28;20033;-64
2021/03/19 00:43:39;;;;;;;7.70;4.30;;;1.40;99.90;;;;;;5057020;28;20040;-64
2021/03/19 00:46:05;;;;;;;6.03;3.72;;;1.40;99.90;;;;;;5038757;28;20086;-64
2021/03/19 00:48:31;;;;;;;6.20;3.60;;;1.40;99.90;;;;;;5056865;28;20198;-62
2021/03/19 00:50:57;;;;;;;5.78;3.70;;;1.30;99.90;;;;;;5056973;28;20035;-62
2021/03/19 00:53:22;;;;;;;6.93;3.40;;;1.30;99.90;;;;;;5038707;28;20036;-62
2021/03/19 00:55:51;;;;;;;5.45;3.72;;;1.30;99.90;;;;;;5056123;28;20040;-62
2021/03/19 00:58:17;;;;;;;6.85;3.50;;;1.30;99.90;;;;;;5056706;28;20037;-63
2021/03/19 01:00:42;;;;;;;5.22;3.60;;;1.20;99.90;;;;;;5056534;28;20033;-64
2021/03/19 01:03:10;;;;;;;5.88;4.03;;;1.20;99.90;;;;;;5056695;28;20037;-64
2021/03/19 01:05:42;;;;;;;8.68;4.85;;;1.20;99.90;;;;;;5055931;28;20040;-64
2021/03/19 01:08:10;;;;;;;7.53;4.00;;;1.10;99.90;;;;;;5056944;28;20036;-64
2021/03/19 01:10:39;;;;;;;6.07;3.70;;;1.10;99.90;;;;;;5056224;28;20479;-64
2021/03/19 01:13:06;;;;;;;5.10;3.63;;;1.10;99.90;;;;;;5037985;28;20066;-63
2021/03/19 01:15:32;;;;;;;5.88;3.67;;;1.10;99.90;;;;;;5054616;28;20028;-63
2021/03/19 01:17:58;;;;;;;6.57;3.78;;;1.10;99.90;;;;;;5055159;28;20055;-63
2021/03/19 01:20:25;;;;;;;5.88;3.83;;;1.10;99.90;;;;;;5056174;28;20032;-63
2021/03/19 01:22:51;;;;;;;6.93;4.07;;;1.10;99.90;;;;;;5056498;28;20748;-63
2021/03/19 01:25:19;;;;;;;5.95;4.13;;;1.10;99.90;;;;;;5037662;28;20041;-63
2021/03/19 01:27:45;;;;;;;7.47;4.32;;;1.10;99.90;;;;;;5055900;28;20035;-63
2021/03/19 01:30:19;;;;;;;6.75;4.00;;;1.00;99.90;;;;;;5055738;28;20828;-63
2021/03/19 01:32:46;;;;;;;7.22;4.25;;;1.00;99.90;;;;;;5056227;28;20155;-63
2021/03/19 01:35:13;;;;;;;9.10;4.22;;;1.00;99.90;;;;;;5056035;28;20066;-63
2021/03/19 01:37:40;;;;;;;8.95;4.70;;;1.00;99.90;;;;;;5037945;28;20525;-64
2021/03/19 01:40:07;;;;;;;5.45;4.03;;;1.10;99.90;;;;;;5056191;28;20056;-63
2021/03/19 01:42:36;;;;;;;7.43;4.05;;;1.10;99.90;;;;;;5056513;28;20493;-64
2021/03/19 01:45:07;;;;;;;6.70;3.70;;;1.10;99.90;;;;;;5052976;28;20032;-63
2021/03/19 01:48:11;;;;;;;7.00;4.32;;;1.10;99.90;;;;;;5055010;28;20634;-63
2021/03/19 01:51:14;;;;;;;6.72;4.55;;;1.10;99.90;;;;;;5055134;28;20048;-63
2021/03/19 01:54:17;;;;;;;6.70;4.22;;;1.00;99.90;;;;;;5056561;28;20511;-63
2021/03/19 01:57:20;;;;;;;7.47;4.57;;;1.00;99.90;;;;;;5055545;28;20028;-63
2021/03/19 02:00:23;;;;;;;9.75;4.72;;;1.10;99.90;;;;;;5055293;28;20033;-68
2021/03/19 02:03:27;;;;;;;10.65;4.97;;;1.20;99.90;;;;;;5056565;28;20507;-69
2021/03/19 02:06:30;;;;;;;9.30;5.20;;;1.10;99.90;;;;;;5054261;28;20119;-69
2021/03/19 02:09:33;;;;;;;9.15;4.90;;;1.20;99.90;;;;;;5055768;28;20039;-69
2021/03/19 02:12:37;;;;;;;7.28;4.65;;;1.20;99.90;;;;;;5055652;28;20067;-69
2021/03/19 02:15:40;;;;;;;9.20;5.43;;;1.10;99.90;;;;;;5055028;28;20041;-69
2021/03/19 02:18:43;;;;;;;7.90;5.13;;;1.10;99.90;;;;;;5054812;28;20550;-69
2021/03/19 02:21:46;;;;;;;8.05;5.07;;;1.00;99.90;;;;;;5037300;28;20033;-69
2021/03/19 02:24:49;;;;;;;9.05;5.53;;;0.80;99.90;;;;;;5055849;28;20036;-69
2021/03/19 02:27:52;;;;;;;10.52;6.40;;;0.70;99.90;;;;;;5058925;28;20039;-69
2021/03/19 02:30:56;;;;;;;12.43;5.88;;;0.50;99.90;;;;;;5041417;28;20032;-69
2021/03/19 02:33:22;;;;;;;8.95;5.90;;;0.40;99.90;;;;;;5059114;28;20761;-69
2021/03/19 02:35:56;;;;;;;11.85;6.97;;;0.40;99.90;;;;;;5058193;28;20032;-69
2021/03/19 02:38:23;;;;;;;11.43;6.53;;;0.40;99.90;;;;;;5057702;28;20036;-69
2021/03/19 02:40:49;;;;;;;12.45;7.55;;;0.40;99.90;;;;;;5058802;28;20189;-69
2021/03/19 02:43:16;;;;;;;11.73;7.55;;;0.40;99.90;;;;;;5059052;28;20028;-69
2021/03/19 02:45:42;;;;;;;12.50;7.97;;;0.40;99.90;;;;;;5058336;28;20040;-69
2021/03/19 02:48:12;;;;;;;17.23;9.43;;;0.30;99.90;;;;;;5057716;28;20061;-69
2021/03/19 02:50:40;;;;;;;13.38;8.57;;;0.30;99.90;;;;;;5058031;28;20135;-69
2021/03/19 02:53:13;;;;;;;15.52;9.45;;;0.30;99.90;;;;;;5058884;28;20805;-69
2021/03/19 02:55:39;;;;;;;17.15;10.10;;;0.20;99.90;;;;;;5058168;28;20044;-69
2021/03/19 02:58:04;;;;;;;17.48;10.57;;;0.20;99.90;;;;;;5051918;28;20075;-69
2021/03/19 03:00:30;;;;;;;21.90;11.30;;;0.10;99.90;;;;;;5058754;28;20865;-69
2021/03/19 03:02:56;;;;;;;22.80;11.35;;;0.00;99.90;;;;;;5057855;28;20547;-69
2021/03/19 03:05:22;;;;;;;24.63;13.15;;;0.00;99.90;;;;;;5057519;28;20142;-69
2021/03/19 03:07:47;;;;;;;23.95;12.52;;;0.00;99.90;;;;;;5056109;28;20603;-69
2021/03/19 03:10:17;;;;;;;27.15;12.73;;;0.10;99.90;;;;;;5058305;28;20060;-68
2021/03/19 03:12:42;;;;;;;26.23;13.68;;;0.10;99.90;;;;;;5056807;28;20036;-69
2021/03/19 03:15:13;;;;;;;29.25;14.65;;;0.10;99.90;;;;;;5057401;28;20041;-69
2021/03/19 03:17:39;;;;;;;27.52;14.65;;;0.20;99.90;;;;;;5040241;28;20349;-68
2021/03/19 03:20:10;;;;;;;28.50;14.40;;;0.20;99.90;;;;;;5058660;28;20790;-69
2021/03/19 03:22:36;;;;;;;29.23;15.07;;;0.20;99.90;;;;;;5058430;28;20114;-69
2021/03/19 03:25:03;;;;;;;28.27;14.13;;;0.10;99.90;;;;;;5056429;28;20064;-69
2021/03/19 03:27:29;;;;;;;28.33;14.27;;;0.10;99.90;;;;;;5057923;28;20037;-69
2021/03/19 03:29:54;;;;;;;26.33;13.88;;;0.00;99.90;;;;;;5058173;28;20044;-69
2021/03/19 03:32:20;;;;;;;29.25;14.05;;;0.00;99.90;;;;;;5057185;28;20063;-69
2021/03/19 03:34:46;;;;;;;28.73;14.27;;;0.00;99.90;;;;;;5058163;28;20500;-69
2021/03/19 03:37:12;;;;;;;30.33;14.48;;;0.00;99.90;;;;;;5039096;28;20078;-69
2021/03/19 03:39:37;;;;;;;29.13;14.20;;;-0.10;99.90;;;;;;5056772;28;20705;-69
2021/03/19 03:42:04;;;;;;;30.02;15.18;;;0.00;99.90;;;;;;5039415;28;20029;-69
2021/03/19 03:44:31;;;;;;;32.25;15.85;;;0.00;99.90;;;;;;5058754;28;20032;-69
2021/03/19 03:46:57;;;;;;;35.50;15.85;;;0.00;99.90;;;;;;5055570;28;20038;-69
2021/03/19 03:49:24;;;;;;;34.50;15.80;;;0.00;99.90;;;;;;5057893;28;20037;-69
2021/03/19 03:51:51;;;;;;;32.22;15.45;;;0.10;99.90;;;;;;5039664;28;20973;-69
2021/03/19 03:54:17;;;;;;;34.35;16.10;;;0.10;99.90;;;;;;5058036;28;20118;-69
2021/03/19 03:56:44;;;;;;;37.90;16.75;;;0.10;99.90;;;;;;5057238;28;20102;-69
2021/03/19 03:59:10;;;;;;;36.10;16.63;;;0.10;99.90;;;;;;5057576;28;20029;-69
2021/03/19 04:01:37;;;;;;;45.78;17.20;;;0.00;99.90;;;;;;5058288;28;20051;-68
2021/03/19 04:04:03;;;;;;;37.17;15.45;;;0.10;99.90;;;;;;5057927;28;20061;-69
2021/03/19 04:06:28;;;;;;;32.63;15.07;;;0.10;99.90;;;;;;5058389;28;20032;-68
2021/03/19 04:08:54;;;;;;;40.63;16.23;;;0.10;99.90;;;;;;5058352;28;20149;-68
2021/03/19 04:11:21;;;;;;;48.60;16.73;;;0.00;99.90;;;;;;5056810;28;20040;-68
2021/03/19 04:13:48;;;;;;;53.63;17.00;;;0.00;99.90;;;;;;5058078;28;20040;-68
2021/03/19 04:16:15;;;;;;;52.65;17.98;;;-0.10;99.90;;;;;;5038366;28;20139;-68
2021/03/19 04:18:41;;;;;;;52.92;18.25;;;-0.10;99.90;;;;;;5038911;28;20062;-68
2021/03/19 04:21:09;;;;;;;44.75;17.88;;;-0.10;99.90;;;;;;5056961;28;20021;-68
2021/03/19 04:23:38;;;;;;;52.20;18.45;;;-0.30;99.90;;;;;;5049985;28;20028;-68
2021/03/19 04:26:04;;;;;;;56.92;21.67;;;-0.30;99.90;;;;;;5056694;28;20063;-68
2021/03/19 04:28:35;;;;;;;56.55;20.75;;;-0.30;99.90;;;;;;5055889;28;20143;-68
2021/03/19 04:31:02;;;;;;;59.28;19.98;;;-0.30;99.90;;;;;;5057540;28;20032;-68
2021/03/19 04:33:29;;;;;;;58.42;21.58;;;-0.40;99.90;;;;;;5057262;28;20037;-68
2021/03/19 04:36:26;;;;;;;65.90;21.25;;;-0.50;99.90;;;;;;5055233;28;20024;-68
2021/03/19 04:38:54;;;;;;;80.05;24.05;;;-0.50;99.90;;;;;;5056252;28;20597;-68
2021/03/19 04:41:20;;;;;;;73.07;24.08;;;-0.50;99.90;;;;;;5056195;28;20139;-68
2021/03/19 04:43:47;;;;;;;80.10;25.58;;;-0.50;99.90;;;;;;5057344;28;20033;-68
2021/03/19 04:46:12;;;;;;;76.40;24.58;;;-0.50;99.90;;;;;;5057923;28;20025;-68
2021/03/19 04:48:38;;;;;;;87.28;25.30;;;-0.50;99.90;;;;;;5037172;28;20090;-68
2021/03/19 04:51:04;;;;;;;94.07;26.35;;;-0.50;99.90;;;;;;5034108;28;20040;-68
2021/03/19 04:53:29;;;;;;;102.70;27.70;;;-0.40;99.90;;;;;;5058233;28;20050;-68
2021/03/19 04:55:55;;;;;;;98.97;27.15;;;-0.30;99.90;;;;;;5056665;28;20036;-68
2021/03/19 04:58:21;;;;;;;93.32;27.80;;;-0.20;99.90;;;;;;5057667;28;20219;-68
2021/03/19 05:00:46;;;;;;;105.57;29.35;;;-0.10;99.90;;;;;;5038466;28;20040;-70
2021/03/19 05:03:12;;;;;;;98.18;28.60;;;0.00;99.90;;;;;;5057512;28;20028;-68
2021/03/19 05:05:38;;;;;;;97.90;25.33;;;0.20;99.90;;;;;;5056924;28;20036;-68
2021/03/19 05:08:04;;;;;;;102.95;28.42;;;0.20;99.90;;;;;;5056809;28;20028;-68
2021/03/19 05:10:33;;;;;;;81.53;24.80;;;0.30;99.90;;;;;;5038897;28;20059;-68
2021/03/19 05:13:00;;;;;;;64.22;22.98;;;0.40;99.90;;;;;;5028295;28;20040;-68
2021/03/19 05:15:28;;;;;;;65.03;23.38;;;0.40;99.90;;;;;;5039042;28;20562;-68
2021/03/19 05:17:54;;;;;;;52.30;20.35;;;0.40;99.90;;;;;;5056835;28;20062;-67
2021/03/19 05:20:21;;;;;;;54.17;21.45;;;0.40;99.90;;;;;;5057630;28;20056;-69
2021/03/19 05:22:47;;;;;;;58.25;24.02;;;0.40;99.90;;;;;;5053740;28;20423;-67
2021/03/19 05:25:16;;;;;;;42.83;18.55;;;0.40;99.90;;;;;;5055620;28;20059;-67
2021/03/19 05:27:43;;;;;;;38.17;17.85;;;0.40;99.90;;;;;;5033340;28;20041;-67
2021/03/19 05:30:10;;;;;;;42.83;19.17;;;0.30;99.90;;;;;;5057499;28;20042;-68
2021/03/19 05:32:36;;;;;;;44.05;18.65;;;0.30;99.90;;;;;;5057162;28;20025;-68
2021/03/19 05:35:03;;;;;;;43.42;19.17;;;0.30;99.90;;;;;;5056145;28;20040;-68
2021/03/19 05:37:29;;;;;;;44.97;19.35;;;0.40;99.90;;;;;;5057133;28;20503;-68
2021/03/19 05:39:55;;;;;;;39.88;17.95;;;0.40;99.90;;;;;;5056012;28;20028;-68
2021/03/19 05:42:33;;;;;;;30.48;15.93;;;0.40;99.90;;;;;;5057241;28;20032;-68
2021/03/19 05:45:03;;;;;;;51.25;19.15;;;0.30;99.90;;;;;;5055196;28;20047;-67
2021/03/19 05:47:29;;;;;;;39.65;18.55;;;0.40;99.90;;;;;;5056275;28;20032;-66
2021/03/19 05:49:59;;;;;;;41.25;18.63;;;0.40;99.90;;;;;;5037385;28;20029;-67
2021/03/19 05:52:35;;;;;;;43.05;18.85;;;0.40;99.90;;;;;;5037728;28;20028;-67
2021/03/19 05:55:16;;;;;;;45.17;19.70;;;0.40;99.90;;;;;;5054634;28;20064;-67
2021/03/19 05:57:43;;;;;;;44.28;18.63;;;0.40;99.90;;;;;;5038210;28;20036;-68
2021/03/19 06:00:17;;;;;;;42.53;18.25;;;0.40;99.90;;;;;;5060937;28;20047;-68
2021/03/19 06:02:43;;;;;;;42.70;21.42;;;0.40;99.90;;;;;;5038902;28;20755;-69
2021/03/19 06:05:13;;;;;;;37.45;18.65;;;0.60;99.90;;;;;;5062744;28;20040;-68
2021/03/19 06:07:41;;;;;;;42.85;20.35;;;0.60;99.90;;;;;;5062402;28;20070;-69
2021/03/19 06:10:25;;;;;;;42.45;19.08;;;0.70;99.90;;;;;;5062914;28;20048;-69
2021/03/19 06:13:13;;;;;;;40.28;19.00;;;0.80;99.90;;;;;;5060011;28;20633;-69
2021/03/19 06:15:47;;;;;;;40.50;18.67;;;0.80;99.90;;;;;;5021872;28;20037;-69
2021/03/19 06:18:39;;;;;;;35.25;18.05;;;0.80;99.90;;;;;;5057383;28;20098;-69
2021/03/19 06:21:11;;;;;;;40.60;18.08;;;0.70;99.90;;;;;;5057950;28;20039;-68
2021/03/19 06:23:57;;;;;;;39.03;18.95;;;0.80;99.90;;;;;;5062181;28;20036;-70
2021/03/19 06:26:27;;;;;;;34.75;17.98;;;0.70;99.90;;;;;;5024263;28;20143;-69
2021/03/19 06:29:27;;;;;;;32.25;17.38;;;0.80;99.90;;;;;;5062412;28;20032;-69
2021/03/19 06:32:13;;;;;;;36.17;18.02;;;0.90;99.90;;;;;;5046286;28;20048;-69
2021/03/19 06:35:09;;;;;;;36.92;18.60;;;0.90;99.90;;;;;;5044242;28;20047;-69
2021/03/19 06:37:43;;;;;;;36.77;17.87;;;0.90;99.90;;;;;;5009400;28;20049;-68
2021/03/19 06:40:39;;;;;;;35.13;16.50;;;0.90;99.90;;;;;;5052528;28;20153;-69
2021/03/19 06:43:18;;;;;;;37.17;17.67;;;0.80;99.90;;;;;;5056684;28;20473;-69
2021/03/19 06:45:46;;;;;;;34.70;16.30;;;0.70;99.90;;;;;;5061240;28;20047;-70
2021/03/19 06:48:33;;;;;;;32.40;16.73;;;0.90;99.90;;;;;;5043890;28;20077;-68
2021/03/19 06:50:59;;;;;;;35.17;17.60;;;1.00;99.90;;;;;;5060801;28;20047;-68
2021/03/19 06:53:34;;;;;;;35.22;16.02;;;1.00;99.90;;;;;;5044547;28;20033;-68
2021/03/19 06:56:21;;;;;;;35.00;17.27;;;1.20;99.90;;;;;;5061201;28;20041;-68
2021/03/19 06:58:49;;;;;;;31.27;16.08;;;1.20;99.90;;;;;;5062588;28;20024;-68
2021/03/19 07:01:30;;;;;;;30.50;15.85;;;1.10;99.90;;;;;;5062418;28;20105;-67
2021/03/19 07:04:08;;;;;;;29.00;15.20;;;0.90;99.90;;;;;;5060576;28;20513;-68
2021/03/19 07:06:52;;;;;;;28.65;15.20;;;1.00;99.90;;;;;;5059956;28;20536;-69
2021/03/19 07:09:46;;;;;;;31.45;15.85;;;1.20;99.90;;;;;;5057854;28;20043;-69
2021/03/19 07:12:48;;;;;;;27.35;14.70;;;1.10;99.90;;;;;;5053471;28;20044;-69
2021/03/19 07:15:22;;;;;;;33.05;16.65;;;1.20;99.90;;;;;;5055112;28;20090;-68
2021/03/19 07:18:10;;;;;;;30.02;15.18;;;1.20;99.90;;;;;;5050328;28;20039;-69
2021/03/19 07:21:04;;;;;;;32.97;16.02;;;1.20;99.90;;;;;;5055167;28;20028;-69
2021/03/19 07:23:50;;;;;;;29.83;14.80;;;1.20;99.90;;;;;;5056090;28;20042;-69
2021/03/19 07:26:24;;;;;;;32.22;15.77;;;1.50;99.90;;;;;;5048933;28;20043;-69
2021/03/19 07:29:16;;;;;;;36.58;16.83;;;1.70;99.90;;;;;;5057491;28;20029;-69
2021/03/19 07:32:10;;;;;;;38.03;17.63;;;2.00;99.90;;;;;;5036906;28;20546;-69
2021/03/19 07:35:05;;;;;;;33.35;17.05;;;1.90;99.90;;;;;;5052304;28;20148;-69
2021/03/19 07:37:39;;;;;;;36.30;16.67;;;1.80;99.90;;;;;;5030462;28;20059;-71
2021/03/19 07:40:39;;;;;;;38.05;18.30;;;1.70;99.90;;;;;;5030881;28;20613;-69
2021/03/19 07:43:30;;;;;;;32.78;15.88;;;1.80;99.90;;;;;;5034697;28;20047;-71
2021/03/19 07:46:18;;;;;;;34.53;16.50;;;2.10;99.90;;;;;;5037731;28;20031;-69
2021/03/19 07:49:27;;;;;;;30.27;16.63;;;2.10;99.90;;;;;;5058338;28;20056;-70
2021/03/19 07:52:26;;;;;;;34.75;16.95;;;2.20;99.90;;;;;;5056389;28;20028;-69
2021/03/19 07:55:13;;;;;;;31.70;15.70;;;2.40;99.90;;;;;;5038859;28;20036;-68
2021/03/19 07:58:13;;;;;;;31.88;14.63;;;2.50;99.90;;;;;;5052869;28;20045;-69
2021/03/19 08:00:46;;;;;;;30.55;15.32;;;2.50;99.90;;;;;;5047589;28;20609;-69
2021/03/19 08:03:20;;;;;;;29.02;13.90;;;2.50;99.90;;;;;;5049923;28;20036;-68
2021/03/19 08:05:51;;;;;;;34.42;15.38;;;2.50;99.90;;;;;;5056566;28;20032;-69
2021/03/19 08:08:36;;;;;;;30.98;16.27;;;2.70;99.90;;;;;;5057065;28;20093;-68
2021/03/19 08:11:08;;;;;;;32.70;15.75;;;2.90;99.90;;;;;;5038886;28;20059;-69
2021/03/19 08:14:06;;;;;;;29.02;16.65;;;2.80;99.90;;;;;;5053317;28;20477;-68
2021/03/19 08:16:42;;;;;;;34.17;16.58;;;2.90;99.90;;;;;;5052073;28;20334;-64
2021/03/19 08:19:08;;;;;;;27.10;14.65;;;3.00;99.90;;;;;;5050655;28;20033;-65
2021/03/19 08:21:39;;;;;;;27.63;14.93;;;3.20;99.90;;;;;;5056865;28;20032;-65
2021/03/19 08:24:29;;;;;;;28.65;15.25;;;3.20;99.90;;;;;;5050542;28;20033;-65
2021/03/19 08:27:10;;;;;;;26.92;15.43;;;3.20;99.90;;;;;;5050764;28;20106;-65
2021/03/19 08:29:35;;;;;;;25.75;13.25;;;3.60;99.90;;;;;;5056795;28;20039;-65
2021/03/19 08:32:15;;;;;;;22.98;11.20;;;3.80;99.90;;;;;;5039257;28;20033;-69
2021/03/19 08:34:58;;;;;;;20.95;10.68;;;4.40;99.90;;;;;;5057178;28;20049;-69
2021/03/19 08:37:27;;;;;;;21.15;11.30;;;4.70;99.90;;;;;;5056563;28;20041;-70
2021/03/19 08:39:54;;;;;;;18.15;10.35;;;4.80;99.90;;;;;;5056203;28;20040;-70
2021/03/19 08:42:41;;;;;;;41.10;20.45;;;4.70;99.90;;;;;;5053713;28;20064;-69
2021/03/19 08:45:23;;;;;;;20.60;11.18;;;4.60;99.90;;;;;;5050551;28;20040;-68
2021/03/19 08:47:53;;;;;;;22.50;10.95;;;4.60;99.90;;;;;;5032708;28;20036;-69
2021/03/19 08:50:39;;;;;;;21.42;10.63;;;4.70;99.90;;;;;;5056472;28;20037;-69
2021/03/19 08:53:07;;;;;;;19.23;10.38;;;4.70;99.90;;;;;;5049925;28;20538;-69
2021/03/19 08:55:37;;;;;;;22.85;10.30;;;4.60;99.90;;;;;;5056682;28;20040;-70
2021/03/19 08:58:29;;;;;;;24.90;11.02;;;4.50;99.90;;;;;;5038780;28;20028;-69
2021/03/19 09:01:06;;;;;;;21.05;11.27;;;4.70;99.90;;;;;;5052197;28;20049;-69
2021/03/19 09:03:41;;;;;;;20.42;10.45;;;4.50;99.90;;;;;;5056858;28;20094;-69
2021/03/19 09:06:19;;;;;;;20.92;10.93;;;4.40;99.90;;;;;;5027249;28;20040;-68
2021/03/19 09:08:51;;;;;;;20.75;11.95;;;4.50;99.90;;;;;;5056116;28;20131;-69
2021/03/19 09:11:22;;;;;;;22.63;12.15;;;4.50;99.90;;;;;;5057313;28;20046;-70
2021/03/19 09:14:16;;;;;;;24.48;12.48;;;4.40;99.90;;;;;;5036566;28;20147;-69
2021/03/19 09:16:44;;;;;;;20.70;11.52;;;4.10;99.90;;;;;;5053030;28;21081;-68
2021/03/19 09:19:28;;;;;;;23.17;11.70;;;4.00;99.90;;;;;;5051141;28;20029;-69
2021/03/19 09:22:14;;;;;;;24.20;12.10;;;4.40;99.90;;;;;;5055156;28;20032;-69
2021/03/19 09:24:39;;;;;;;23.60;11.70;;;5.00;99.90;;;;;;5038231;28;20029;-69
2021/03/19 09:27:26;;;;;;;22.90;10.32;;;5.10;99.90;;;;;;5031764;28;20055;-69
2021/03/19 09:30:15;;;;;;;15.50;8.82;;;5.10;99.90;;;;;;5054345;28;20036;-69
2021/03/19 09:32:47;;;;;;;15.73;8.68;;;5.30;99.90;;;;;;5051590;28;20036;-69
2021/03/19 09:35:31;;;;;;;16.85;9.35;;;5.20;99.90;;;;;;5056137;28;20033;-69
2021/03/19 09:37:57;;;;;;;17.80;9.30;;;5.10;99.90;;;;;;5055674;28;20064;-69
2021/03/19 09:40:48;;;;;;;17.67;8.55;;;4.60;99.90;;;;;;5056833;28;20124;-69
2021/03/19 09:43:46;;;;;;;14.55;8.00;;;4.80;99.90;;;;;;5052581;28;20036;-69
2021/03/19 09:46:41;;;;;;;12.77;7.30;;;4.80;99.90;;;;;;5051992;28;20049;-69
2021/03/19 09:49:21;;;;;;;12.52;7.07;;;5.10;99.90;;;;;;5047184;28;20052;-69
2021/03/19 09:51:47;;;;;;;12.65;6.57;;;5.00;99.90;;;;;;5053698;28;20035;-69
2021/03/19 09:54:17;;;;;;;11.90;6.28;;;5.10;99.90;;;;;;5053967;28;20028;-69
2021/03/19 09:56:43;;;;;;;9.00;5.43;;;5.20;99.90;;;;;;5056157;28;20032;-70
2021/03/19 09:59:24;;;;;;;12.50;5.07;;;5.30;99.90;;;;;;5056101;28;20670;-69
2021/03/19 10:01:51;;;;;;;8.75;5.10;;;5.20;99.90;;;;;;5052889;28;20094;-69
2021/03/19 10:04:36;;;;;;;7.38;4.55;;;5.10;99.90;;;;;;5038161;28;20028;-69
2021/03/19 10:07:22;;;;;;;8.05;4.07;;;5.30;99.90;;;;;;5052613;28;20075;-69
2021/03/19 10:09:57;;;;;;;11.93;3.70;;;5.60;99.90;;;;;;5055901;28;20064;-69
2021/03/19 10:12:27;;;;;;;5.63;2.95;;;5.80;99.90;;;;;;5055986;28;20756;-69
2021/03/19 10:14:55;;;;;;;4.72;2.95;;;6.00;99.90;;;;;;5037475;28;20123;-69
2021/03/19 10:17:33;;;;;;;4.68;2.80;;;6.00;99.90;;;;;;5055359;28;20166;-69
2021/03/19 10:20:21;;;;;;;8.50;2.63;;;5.90;99.90;;;;;;5055479;28;20534;-69
2021/03/19 10:22:48;;;;;;;5.95;2.53;;;6.10;99.90;;;;;;5053108;28;20033;-69
2021/03/19 10:25:24;;;;;;;3.00;2.17;;;6.10;99.90;;;;;;5055583;28;20039;-69
2021/03/19 10:27:53;;;;;;;3.97;2.10;;;6.50;99.90;;;;;;5054075;28;20529;-69
2021/03/19 10:30:23;;;;;;;2.65;1.80;;;6.30;99.90;;;;;;5055193;28;20488;-69
2021/03/19 10:32:48;;;;;;;3.70;1.50;;;6.20;99.90;;;;;;5049996;28;20108;-69
2021/03/19 10:35:30;;;;;;;3.67;1.63;;;5.90;99.90;;;;;;5031653;28;20364;-69
2021/03/19 10:38:26;;;;;;;2.13;1.60;;;5.70;99.90;;;;;;5054150;28;20044;-69
2021/03/19 10:40:56;;;;;;;;;;;5.90;99.90;;;;;;5053189;28;20163;-69
2021/03/19 10:43:33;;;;;;;2.72;1.80;;;6.10;99.90;;;;;;5037405;28;19993;-69
2021/03/19 10:46:14;;;;;;;3.75;1.73;;;6.70;99.90;;;;;;5050154;28;20060;-69
2021/03/19 10:48:47;;;;;;;3.38;1.90;;;7.00;99.90;;;;;;5038264;28;20032;-68
2021/03/19 10:51:51;;;;;;;2.95;1.60;;;7.20;99.90;;;;;;5057110;28;20035;-69
2021/03/19 10:54:25;;;;;;;6.00;2.92;;;7.70;99.90;;;;;;5052340;28;20028;-69
2021/03/19 10:56:53;;;;;;;3.60;1.90;;;7.40;99.20;;;;;;5052649;28;20110;-69
2021/03/19 10:59:30;;;;;;;3.78;1.38;;;7.30;99.90;;;;;;5058673;28;20024;-69
2021/03/19 11:02:17;;;;;;;4.68;1.60;;;7.00;99.90;;;;;;5041272;28;20068;-69
2021/03/19 11:05:02;;;;;;;2.83;1.25;;;7.30;99.90;;;;;;5058614;28;20036;-69
2021/03/19 11:07:29;;;;;;;3.38;1.38;;;7.90;98.70;;;;;;5052273;28;20041;-69
2021/03/19 11:10:07;;;;;;;2.58;1.63;;;8.20;97.70;;;;;;5039903;28;20507;-69
2021/03/19 11:12:36;;;;;;;2.40;1.30;;;8.50;99.40;;;;;;5058986;28;20028;-69
2021/03/19 11:15:11;;;;;;;1.38;1.00;;;8.40;97.60;;;;;;5057388;28;20127;-70
2021/03/19 11:17:37;;;;;;;1.40;0.73;;;8.10;96.00;;;;;;5038734;28;20103;-69
2021/03/19 11:20:22;;;;;;;1.85;1.00;;;8.10;95.40;;;;;;5055674;28;20883;-70
2021/03/19 11:22:48;;;;;;;1.33;0.90;;;8.00;95.70;;;;;;5059411;28;20036;-69
2021/03/19 11:25:44;;;;;;;2.05;1.10;;;8.10;95.50;;;;;;5059307;28;20028;-68
2021/03/19 11:28:29;;;;;;;3.58;1.30;;;8.00;94.80;;;;;;5049855;28;20065;-68
2021/03/19 11:31:10;;;;;;;2.03;1.30;;;7.80;95.80;;;;;;5051726;28;20036;-69
2021/03/19 11:34:06;;;;;;;2.63;1.25;;;7.40;97.60;;;;;;5039724;28;20113;-70
2021/03/19 11:36:58;;;;;;;2.13;1.15;;;7.20;99.20;;;;;;5033275;28;20659;-69
2021/03/19 11:39:58;;;;;;;1.80;1.20;;;6.90;99.90;;;;;;5036415;28;20033;-70
2021/03/19 11:42:34;;;;;;;3.50;1.35;;;6.50;99.90;;;;;;5049519;28;20029;-70
2021/03/19 11:45:03;;;;;;;2.38;1.23;;;6.30;99.90;;;;;;5058142;28;20079;-69
2021/03/19 11:47:41;;;;;;;1.40;1.30;;;6.00;99.90;;;;;;5055503;28;20037;-69
2021/03/19 11:50:13;;;;;;;2.60;1.40;;;6.20;99.90;;;;;;5052476;28;20094;-68
2021/03/19 11:52:39;;;;;;;2.42;1.30;;;6.40;99.90;;;;;;5058189;28;20032;-70
2021/03/19 11:55:06;;;;;;;3.08;1.77;;;6.50;99.90;;;;;;5045291;28;20039;-70
2021/03/19 11:57:32;;;;;;;1.77;0.88;;;6.00;99.90;;;;;;5031336;28;20105;-71
2021/03/19 11:59:58;;;;;;;1.38;0.80;;;5.80;99.90;;;;;;5039319;28;20074;-69
2021/03/19 12:02:34;;;;;;;2.03;0.73;;;5.60;99.90;;;;;;5058363;28;20086;-68
2021/03/19 12:05:00;;;;;;;3.55;0.88;;;5.40;99.90;;;;;;5056879;28;20033;-68
2021/03/19 12:07:26;;;;;;;2.03;0.80;;;5.70;99.90;;;;;;5051743;28;20494;-68
2021/03/19 12:09:52;;;;;;;1.90;0.80;;;6.20;99.90;;;;;;5057035;28;20123;-68
2021/03/19 12:12:24;;;;;;;0.80;0.60;;;6.80;99.90;;;;;;5057369;28;20192;-70
2021/03/19 12:14:50;;;;;;;2.22;0.80;;;7.90;99.90;;;;;;5057233;28;20753;-68
2021/03/19 12:17:17;;;;;;;2.45;0.68;;;9.00;99.30;;;;;;5038987;28;20044;-69
2021/03/19 12:19:43;;;;;;;3.05;1.10;;;9.40;96.80;;;;;;5055959;28;20032;-70
2021/03/19 12:22:09;;;;;;;3.63;0.82;;;9.40;96.70;;;;;;5056850;28;20044;-68
2021/03/19 12:24:36;;;;;;;3.60;1.13;;;9.60;94.70;;;;;;5056625;28;20106;-68
2021/03/19 12:27:03;;;;;;;2.25;1.00;;;10.20;86.60;;;;;;5038065;28;20567;-68
2021/03/19 12:29:28;;;;;;;3.22;1.38;;;9.90;83.50;;;;;;5056681;28;20040;-69
2021/03/19 12:31:55;;;;;;;1.92;1.00;;;9.70;75.20;;;;;;5051667;28;20087;-71
2021/03/19 12:34:22;;;;;;;6.63;1.58;;;8.70;79.30;;;;;;5057423;28;20522;-70
2021/03/19 12:36:49;;;;;;;3.75;1.20;;;7.70;89.70;;;;;;5038581;28;20043;-70
2021/03/19 12:39:16;;;;;;;3.90;1.20;;;7.40;93.10;;;;;;5055632;28;20040;-69
2021/03/19 12:41:42;;;;;;;2.72;1.30;;;7.50;91.00;;;;;;5056953;28;20905;-70
2021/03/19 12:44:09;;;;;;;2.38;1.20;;;7.30;93.60;;;;;;5052399;28;20040;-66
2021/03/19 12:46:36;;;;;;;3.38;1.58;;;7.30;97.20;;;;;;5056685;28;20597;-67
2021/03/19 12:49:03;;;;;;;2.42;1.17;;;7.40;93.60;;;;;;5037363;28;20112;-67
2021/03/19 12:51:29;;;;;;;4.63;1.88;;;8.00;91.30;;;;;;5057686;28;20127;-67
2021/03/19 12:53:54;;;;;;;2.63;1.20;;;7.90;88.60;;;;;;5031072;28;20036;-69
2021/03/19 12:56:21;;;;;;;2.72;1.27;;;7.20;90.70;;;;;;5056456;28;20123;-70
2021/03/19 12:58:46;;;;;;;3.75;1.40;;;7.10;91.70;;;;;;5056392;28;20666;-69
2021/03/19 13:01:14;;;;;;;8.45;1.20;;;6.90;91.50;;;;;;5057192;28;20032;-69
2021/03/19 13:03:40;;;;;;;5.72;3.13;;;6.80;91.00;;;;;;5056310;28;20543;-67
2021/03/19 13:06:05;;;;;;;20.98;6.70;;;6.60;91.70;;;;;;5055857;28;20036;-67
2021/03/19 13:08:31;;;;;;;5.45;1.50;;;6.30;92.50;;;;;;5055225;28;20776;-69
2021/03/19 13:10:57;;;;;;;1.50;0.88;;;6.10;92.30;;;;;;5056331;28;20404;-70
2021/03/19 13:13:22;;;;;;;5.97;1.40;;;6.10;91.60;;;;;;5056492;28;20886;-69
2021/03/19 13:15:48;;;;;;;4.57;1.10;;;6.20;91.40;;;;;;5056084;28;20032;-69
2021/03/19 13:18:14;;;;;;;6.85;1.48;;;6.20;92.00;;;;;;5052142;28;20456;-63
2021/03/19 13:20:40;;;;;;;2.60;1.08;;;6.40;92.80;;;;;;5037209;28;20471;-65
2021/03/19 13:23:07;;;;;;;4.93;1.20;;;6.50;93.50;;;;;;5039910;28;20707;-64